createdAt,value
2017-12-12T00:00:51.396Z,95371
2017-12-12T00:03:20.323Z,95375
2017-12-12T00:05:48.486Z,95364
2017-12-12T00:08:16.646Z,95372
2017-12-12T00:10:44.809Z,95379
2017-12-12T00:13:13.734Z,95400
2017-12-12T00:15:41.897Z,95383
2017-12-12T00:18:10.059Z,95384
2017-12-12T00:20:38.271Z,95380
2017-12-12T00:23:06.435Z,95377
2017-12-12T00:25:34.610Z,95390
2017-12-12T00:28:02.775Z,95407
2017-12-12T00:30:30.944Z,95392
2017-12-12T00:32:59.140Z,95397
2017-12-12T00:35:27.306Z,95399
2017-12-12T00:37:55.497Z,95405
2017-12-12T00:40:23.666Z,95405
2017-12-12T00:42:51.830Z,95430
2017-12-12T00:45:19.984Z,95421
2017-12-12T00:47:48.146Z,95413
2017-12-12T00:50:16.317Z,95428
2017-12-12T00:52:45.247Z,95423
2017-12-12T00:55:13.410Z,95438
2017-12-12T00:57:41.569Z,95441
2017-12-12T01:00:09.731Z,95434
2017-12-12T01:02:38.649Z,95443
2017-12-12T01:05:06.820Z,95469
2017-12-12T01:07:35.010Z,95482
2017-12-12T01:10:03.197Z,95450
2017-12-12T01:12:31.358Z,95480
2017-12-12T01:14:59.517Z,95467
2017-12-12T01:17:27.711Z,95471
2017-12-12T01:19:55.906Z,95464
2017-12-12T01:22:24.078Z,95474
2017-12-12T01:24:52.243Z,95474
2017-12-12T01:27:20.450Z,95479
2017-12-12T01:29:49.379Z,95474
2017-12-12T01:32:17.542Z,95477
2017-12-12T01:34:45.713Z,95476
2017-12-12T01:37:14.639Z,95464
2017-12-12T01:39:42.806Z,95469
2017-12-12T01:42:10.978Z,95452
2017-12-12T01:44:39.146Z,95455
2017-12-12T01:47:07.305Z,95453
2017-12-12T01:49:35.476Z,95460
2017-12-12T01:52:04.436Z,95446
2017-12-12T01:54:32.618Z,95440
2017-12-12T01:57:00.784Z,95447
2017-12-12T01:59:28.946Z,95451
2017-12-12T02:01:57.124Z,95457
2017-12-12T02:04:25.293Z,95466
2017-12-12T02:06:53.496Z,95466
2017-12-12T02:09:22.454Z,95478
2017-12-12T02:11:50.623Z,95463
2017-12-12T02:14:18.788Z,95476
2017-12-12T02:16:47.045Z,95464
2017-12-12T02:19:15.213Z,95479
2017-12-12T02:21:43.378Z,95484
2017-12-12T02:24:12.309Z,95488
2017-12-12T02:26:40.472Z,95493
2017-12-12T02:29:08.643Z,95501
2017-12-12T02:31:36.795Z,95497
2017-12-12T02:34:04.978Z,95506
2017-12-12T02:36:33.166Z,95508
2017-12-12T02:39:01.372Z,95518
2017-12-12T02:41:29.534Z,95503
2017-12-12T02:43:57.698Z,95495
2017-12-12T02:46:25.863Z,95493
2017-12-12T02:48:54.043Z,95507
2017-12-12T02:51:22.202Z,95506
2017-12-12T02:53:50.370Z,95509
2017-12-12T02:56:18.532Z,95521
2017-12-12T02:58:47.491Z,95534
2017-12-12T03:01:15.655Z,95523
2017-12-12T03:03:43.834Z,95530
2017-12-12T03:06:12.040Z,95534
2017-12-12T03:08:40.985Z,95534
2017-12-12T03:11:09.152Z,95538
2017-12-12T03:13:37.343Z,95535
2017-12-12T03:16:05.511Z,95531
2017-12-12T03:18:33.698Z,95540
2017-12-12T03:21:01.897Z,95548
2017-12-12T03:23:30.063Z,95544
2017-12-12T03:25:58.217Z,95567
2017-12-12T03:28:26.406Z,95556
2017-12-12T03:30:54.576Z,95573
2017-12-12T03:33:22.743Z,95576
2017-12-12T03:35:50.909Z,95585
2017-12-12T03:38:19.079Z,95577
2017-12-12T03:40:47.243Z,95589
2017-12-12T03:43:15.434Z,95580
2017-12-12T03:45:44.010Z,95596
2017-12-12T03:48:12.176Z,95578
2017-12-12T03:50:40.337Z,95576
2017-12-12T03:53:08.494Z,95586
2017-12-12T03:55:37.446Z,95606
2017-12-12T03:58:05.610Z,95588
2017-12-12T04:00:33.765Z,95587
2017-12-12T04:03:01.923Z,95604
2017-12-12T04:05:30.086Z,95619
2017-12-12T04:07:59.020Z,95622
2017-12-12T04:10:27.200Z,95629
2017-12-12T04:12:55.357Z,95644
2017-12-12T04:15:23.518Z,95644
2017-12-12T04:17:51.715Z,95646
2017-12-12T04:20:19.899Z,95648
2017-12-12T04:22:48.838Z,95660
2017-12-12T04:25:17.762Z,95665
2017-12-12T04:27:45.954Z,95674
2017-12-12T04:30:14.911Z,95676
2017-12-12T04:32:43.081Z,95680
2017-12-12T04:35:12.006Z,95683
2017-12-12T04:37:40.168Z,95690
2017-12-12T04:40:08.330Z,95699
2017-12-12T04:42:36.506Z,95691
2017-12-12T04:45:04.694Z,95698
2017-12-12T04:47:32.855Z,95687
2017-12-12T04:50:01.023Z,95712
2017-12-12T04:52:29.221Z,95721
2017-12-12T04:54:57.389Z,95717
2017-12-12T04:57:25.562Z,95736
2017-12-12T04:59:53.736Z,95735
2017-12-12T05:02:21.897Z,95727
2017-12-12T05:04:50.090Z,95750
2017-12-12T05:07:18.261Z,95751
2017-12-12T05:09:46.418Z,95768
2017-12-12T05:12:14.603Z,95771
2017-12-12T05:14:42.766Z,95779
2017-12-12T05:17:10.934Z,95791
2017-12-12T05:19:39.879Z,95798
2017-12-12T05:22:08.035Z,95791
2017-12-12T05:24:36.202Z,95786
2017-12-12T05:27:04.358Z,95803
2017-12-12T05:29:32.527Z,95813
2017-12-12T05:32:00.702Z,95817
2017-12-12T05:34:28.883Z,95816
2017-12-12T05:36:57.048Z,95812
2017-12-12T05:39:25.214Z,95816
2017-12-12T05:41:54.143Z,95831
2017-12-12T05:44:22.290Z,95834
2017-12-12T05:46:50.503Z,95833
2017-12-12T05:49:18.703Z,95844
2017-12-12T05:51:46.861Z,95857
2017-12-12T05:54:15.063Z,95851
2017-12-12T05:56:44.007Z,95865
2017-12-12T05:59:12.166Z,95858
2017-12-12T06:01:40.326Z,95869
2017-12-12T06:04:09.248Z,95865
2017-12-12T06:06:37.407Z,95887
2017-12-12T06:09:05.565Z,95898
2017-12-12T06:11:34.490Z,95913
2017-12-12T06:14:02.675Z,95902
2017-12-12T06:16:30.839Z,95910
2017-12-12T06:18:59.059Z,95920
2017-12-12T06:21:27.250Z,95933
2017-12-12T06:23:56.190Z,95937
2017-12-12T06:26:24.355Z,95936
2017-12-12T06:28:52.515Z,95941
2017-12-12T06:31:20.679Z,95956
2017-12-12T06:33:48.901Z,95953
2017-12-12T06:36:17.548Z,95957
2017-12-12T06:38:45.725Z,95970
2017-12-12T06:41:13.907Z,95971
2017-12-12T06:43:42.190Z,95993
2017-12-12T06:46:10.415Z,96002
2017-12-12T06:48:39.372Z,96010
2017-12-12T06:51:07.600Z,96010
2017-12-12T06:53:36.539Z,96023
2017-12-12T06:56:04.742Z,96036
2017-12-12T06:58:32.925Z,96039
2017-12-12T07:01:01.135Z,96046
2017-12-12T07:03:29.349Z,96019
2017-12-12T07:05:58.300Z,96037
2017-12-12T07:08:26.513Z,96045
2017-12-12T07:10:54.721Z,96049
2017-12-12T07:13:22.924Z,96061
2017-12-12T07:15:51.099Z,96065
2017-12-12T07:18:19.274Z,96068
2017-12-12T07:20:47.450Z,96079
2017-12-12T07:23:15.605Z,96062
2017-12-12T07:25:44.586Z,96069
2017-12-12T07:28:12.816Z,96079
2017-12-12T07:30:41.013Z,96071
2017-12-12T07:33:09.170Z,96083
2017-12-12T07:35:37.332Z,96090
2017-12-12T07:38:05.515Z,96104
2017-12-12T07:40:33.754Z,96118
2017-12-12T07:43:02.694Z,96110
2017-12-12T07:45:30.866Z,96120
2017-12-12T07:47:59.043Z,96128
2017-12-12T07:50:27.217Z,96126
2017-12-12T07:52:55.462Z,96149
2017-12-12T07:55:23.629Z,96149
2017-12-12T07:57:52.576Z,96175
2017-12-12T08:00:20.773Z,96188
2017-12-12T08:02:49.735Z,96191
2017-12-12T08:05:17.922Z,96196
2017-12-12T08:07:46.111Z,96200
2017-12-12T08:10:14.292Z,96213
2017-12-12T08:12:43.244Z,96220
2017-12-12T08:15:12.572Z,96229
2017-12-12T08:17:40.754Z,96231
2017-12-12T08:20:08.952Z,96240
2017-12-12T08:22:37.891Z,96253
2017-12-12T08:25:06.067Z,96252
2017-12-12T08:27:34.229Z,96260
2017-12-12T08:30:02.396Z,96267
2017-12-12T08:32:30.612Z,96274
2017-12-12T08:34:58.792Z,96263
2017-12-12T08:37:26.959Z,96285
2017-12-12T08:39:55.135Z,96293
2017-12-12T08:42:23.351Z,96291
2017-12-12T08:44:51.520Z,96291
2017-12-12T08:47:20.451Z,96289
2017-12-12T08:49:48.625Z,96300
2017-12-12T08:52:16.785Z,96299
2017-12-12T08:54:44.961Z,96324
2017-12-12T08:57:13.135Z,96307
2017-12-12T08:59:41.319Z,96301
2017-12-12T09:02:09.494Z,96297
2017-12-12T09:04:37.657Z,96292
2017-12-12T09:07:05.843Z,96302
2017-12-12T09:09:34.048Z,96326
2017-12-12T09:12:02.254Z,96326
2017-12-12T09:14:31.230Z,96339
2017-12-12T09:16:59.434Z,96331
2017-12-12T09:19:27.602Z,96341
2017-12-12T09:21:55.766Z,96347
2017-12-12T09:24:24.706Z,96345
2017-12-12T09:26:52.866Z,96344
2017-12-12T09:29:21.046Z,96349
2017-12-12T09:31:49.242Z,96349
2017-12-12T09:34:17.411Z,96350
2017-12-12T09:36:45.586Z,96362
2017-12-12T09:39:14.522Z,96362
2017-12-12T09:41:43.469Z,96353
2017-12-12T09:44:11.641Z,96378
2017-12-12T09:46:39.825Z,96368
2017-12-12T09:49:07.986Z,96357
2017-12-12T09:51:36.154Z,96350
2017-12-12T09:54:04.338Z,96353
2017-12-12T09:56:32.506Z,96358
2017-12-12T09:59:00.674Z,96376
2017-12-12T10:01:28.893Z,96366
2017-12-12T10:03:57.062Z,96369
2017-12-12T10:06:25.228Z,96383
2017-12-12T10:08:53.434Z,96377
2017-12-12T10:11:22.367Z,96382
2017-12-12T10:13:50.540Z,96397
2017-12-12T10:16:18.705Z,96398
2017-12-12T10:18:46.881Z,96409
2017-12-12T10:21:15.044Z,96414
2017-12-12T10:23:43.213Z,96424
2017-12-12T10:26:12.146Z,96425
2017-12-12T10:28:40.316Z,96412
2017-12-12T10:31:08.486Z,96413
2017-12-12T10:33:36.666Z,96405
2017-12-12T10:36:04.834Z,96402
2017-12-12T10:38:33.001Z,96409
2017-12-12T10:41:01.207Z,96420
2017-12-12T10:43:29.492Z,96432
2017-12-12T10:45:57.703Z,96433
2017-12-12T10:48:26.635Z,96436
2017-12-12T10:50:54.807Z,96429
2017-12-12T10:53:22.973Z,96442
2017-12-12T10:55:51.142Z,96459
2017-12-12T10:58:19.339Z,96453
2017-12-12T11:00:47.497Z,96460
2017-12-12T11:03:15.666Z,96447
2017-12-12T11:05:43.827Z,96457
2017-12-12T11:08:11.988Z,96462
2017-12-12T11:10:40.949Z,96458
2017-12-12T11:13:09.105Z,96452
2017-12-12T11:15:37.274Z,96459
2017-12-12T11:18:05.438Z,96459
2017-12-12T11:20:33.608Z,96470
2017-12-12T11:23:01.767Z,96475
2017-12-12T11:25:29.953Z,96471
2017-12-12T11:27:58.129Z,96486
2017-12-12T11:30:26.380Z,96484
2017-12-12T11:32:54.575Z,96479
2017-12-12T11:35:22.790Z,96481
2017-12-12T11:37:50.949Z,96485
2017-12-12T11:40:19.150Z,96484
2017-12-12T11:42:47.310Z,96479
2017-12-12T11:45:15.527Z,96477
2017-12-12T11:47:43.729Z,96481
2017-12-12T11:50:11.890Z,96483
2017-12-12T11:52:40.063Z,96486
2017-12-12T11:55:08.248Z,96489
2017-12-12T11:57:36.410Z,96496
2017-12-12T12:00:04.666Z,96495
2017-12-12T12:02:33.611Z,96491
2017-12-12T12:05:01.798Z,96501
2017-12-12T12:07:29.959Z,96510
2017-12-12T12:09:58.168Z,96511
2017-12-12T12:12:26.394Z,96511
2017-12-12T12:14:54.553Z,96510
2017-12-12T12:17:22.722Z,96507
2017-12-12T12:19:50.887Z,96511
2017-12-12T12:22:19.851Z,96505
2017-12-12T12:24:48.059Z,96509
2017-12-12T12:27:17.026Z,96525
2017-12-12T12:29:45.202Z,96525
2017-12-12T12:32:13.368Z,96524
2017-12-12T12:34:41.846Z,96535
2017-12-12T12:37:10.014Z,96535
2017-12-12T12:39:38.179Z,96543
2017-12-12T12:42:06.355Z,96534
2017-12-12T12:44:34.523Z,96545
2017-12-12T12:47:02.689Z,96544
2017-12-12T12:49:30.870Z,96561
2017-12-12T12:51:59.031Z,96546
2017-12-12T12:54:27.192Z,96551
2017-12-12T12:56:55.359Z,96547
2017-12-12T12:59:23.525Z,96556
2017-12-12T13:01:52.468Z,96571
2017-12-12T13:04:20.658Z,96586
2017-12-12T13:06:48.842Z,96587
2017-12-12T13:09:17.007Z,96599
2017-12-12T13:11:45.177Z,96610
2017-12-12T13:14:13.356Z,96596
2017-12-12T13:16:41.552Z,96605
2017-12-12T13:19:10.482Z,96619
2017-12-12T13:21:38.648Z,96627
2017-12-12T13:24:06.806Z,96639
2017-12-12T13:26:35.733Z,96646
2017-12-12T13:29:03.955Z,96655
2017-12-12T13:31:32.922Z,96657
2017-12-12T13:34:01.083Z,96651
2017-12-12T13:36:29.279Z,96645
2017-12-12T13:38:58.241Z,96658
2017-12-12T13:41:26.418Z,96676
2017-12-12T13:43:54.583Z,96681
2017-12-12T13:46:22.753Z,96681
2017-12-12T13:48:50.929Z,96674
2017-12-12T13:51:19.095Z,96675
2017-12-12T13:53:47.275Z,96676
2017-12-12T13:56:15.479Z,96692
2017-12-12T13:58:43.706Z,96701
2017-12-12T14:01:12.639Z,96702
2017-12-12T14:03:40.838Z,96705
2017-12-12T14:06:09.014Z,96710
2017-12-12T14:08:37.171Z,96721
2017-12-12T14:11:05.399Z,96736
2017-12-12T14:13:34.333Z,96738
2017-12-12T14:16:02.508Z,96741
2017-12-12T14:18:30.690Z,96732
2017-12-12T14:20:58.886Z,96739
2017-12-12T14:23:27.057Z,96741
2017-12-12T14:25:55.234Z,96729
2017-12-12T14:28:23.389Z,96738
2017-12-12T14:30:51.551Z,96744
2017-12-12T14:33:19.711Z,96760
2017-12-12T14:35:47.880Z,96766
2017-12-12T14:38:16.036Z,96788
2017-12-12T14:40:44.969Z,96786
2017-12-12T14:43:13.888Z,96795
2017-12-12T14:45:42.092Z,96803
2017-12-12T14:48:11.019Z,96805
2017-12-12T14:50:39.181Z,96811
2017-12-12T14:53:07.378Z,96819
2017-12-12T14:55:35.576Z,96815
2017-12-12T14:58:03.734Z,96817
2017-12-12T15:00:31.911Z,96806
2017-12-12T15:03:00.127Z,96817
2017-12-12T15:05:29.071Z,96828
2017-12-12T15:07:57.243Z,96835
2017-12-12T15:10:25.410Z,96830
2017-12-12T15:12:53.614Z,96825
2017-12-12T15:15:21.815Z,96832
2017-12-12T15:17:50.790Z,96840
2017-12-12T15:20:18.966Z,96853
2017-12-12T15:22:47.147Z,96855
2017-12-12T15:25:15.299Z,96862
2017-12-12T15:27:43.457Z,96865
2017-12-12T15:30:11.628Z,96865
2017-12-12T15:32:39.824Z,96862
2017-12-12T15:35:08.024Z,96860
2017-12-12T15:37:36.992Z,96864
2017-12-12T15:40:05.185Z,96873
2017-12-12T15:42:33.386Z,96869
2017-12-12T15:45:01.544Z,96866
2017-12-12T15:47:30.486Z,96864
2017-12-12T15:49:58.645Z,96865
2017-12-12T15:52:26.843Z,96873
2017-12-12T15:54:55.000Z,96881
2017-12-12T15:57:23.182Z,96882
2017-12-12T15:59:51.367Z,96886
2017-12-12T16:02:19.549Z,96887
2017-12-12T16:04:47.755Z,96892
2017-12-12T16:07:16.704Z,96894
2017-12-12T16:09:44.870Z,96901
2017-12-12T16:12:13.058Z,96903
2017-12-12T16:14:41.222Z,96911
2017-12-12T16:17:09.409Z,96911
2017-12-12T16:19:37.632Z,96917
2017-12-12T16:22:05.847Z,96922
2017-12-12T16:24:34.046Z,96929
2017-12-12T16:27:02.217Z,96928
2017-12-12T16:29:30.432Z,96926
2017-12-12T16:31:59.460Z,96930
2017-12-12T16:34:27.625Z,96938
2017-12-12T16:36:55.778Z,96948
2017-12-12T16:39:24.735Z,96948
2017-12-12T16:41:52.909Z,96955
2017-12-12T16:44:21.146Z,96956
2017-12-12T16:46:49.311Z,96957
2017-12-12T16:49:17.478Z,96968
2017-12-12T16:51:45.676Z,96970
2017-12-12T16:54:13.854Z,96972
2017-12-12T16:56:42.030Z,96971
2017-12-12T16:59:10.204Z,96982
2017-12-12T17:01:38.385Z,96984
2017-12-12T17:04:06.552Z,96983
2017-12-12T17:06:34.751Z,96988
2017-12-12T17:09:02.912Z,96995
2017-12-12T17:11:31.106Z,97004
2017-12-12T17:13:59.298Z,97010
2017-12-12T17:16:27.471Z,97018
2017-12-12T17:18:55.643Z,97025
2017-12-12T17:21:23.803Z,97033
2017-12-12T17:23:51.979Z,97032
2017-12-12T17:26:20.151Z,97034
2017-12-12T17:28:48.336Z,97035
2017-12-12T17:31:16.532Z,97035
2017-12-12T17:33:45.502Z,97040
2017-12-12T17:36:13.738Z,97047
2017-12-12T17:38:41.915Z,97059
2017-12-12T17:41:10.078Z,97063
2017-12-12T17:43:38.323Z,97060
2017-12-12T17:46:07.309Z,97063
2017-12-12T17:48:36.266Z,97079
2017-12-12T17:51:04.439Z,97085
2017-12-12T17:53:32.635Z,97090
2017-12-12T17:56:00.804Z,97099
2017-12-12T17:58:29.004Z,97089
2017-12-12T18:00:58.007Z,97092
2017-12-12T18:03:27.021Z,97096
2017-12-12T18:05:55.234Z,97097
2017-12-12T18:08:23.384Z,97102
2017-12-12T18:10:51.562Z,97110
2017-12-12T18:13:19.736Z,97114
2017-12-12T18:15:47.969Z,97117
2017-12-12T18:18:16.923Z,97127
2017-12-12T18:20:45.109Z,97132
2017-12-12T18:23:13.279Z,97133
2017-12-12T18:25:41.438Z,97131
2017-12-12T18:28:09.606Z,97134
2017-12-12T18:30:37.800Z,97136
2017-12-12T18:33:05.980Z,97137
2017-12-12T18:35:34.142Z,97138
2017-12-12T18:38:02.320Z,97143
2017-12-12T18:40:30.483Z,97149
2017-12-12T18:42:58.664Z,97153
2017-12-12T18:45:26.851Z,97157
2017-12-12T18:47:55.050Z,97163
2017-12-12T18:50:24.012Z,97170
2017-12-12T18:52:52.200Z,97180
2017-12-12T18:55:20.406Z,97194
2017-12-12T18:57:49.391Z,97198
2017-12-12T19:00:18.469Z,97200
2017-12-12T19:02:46.876Z,97197
2017-12-12T19:05:16.076Z,97180
2017-12-12T19:07:44.471Z,97181
2017-12-12T19:10:13.035Z,97174
2017-12-12T19:12:42.391Z,97177
2017-12-12T19:15:10.994Z,97186
2017-12-12T19:17:39.620Z,97194
2017-12-12T19:20:08.034Z,97195
2017-12-12T19:22:36.406Z,97206
2017-12-12T20:47:02.522Z,97296
2017-12-12T20:49:30.741Z,97305
2017-12-12T20:51:59.759Z,97310
2017-12-12T20:54:28.042Z,97314
2017-12-12T20:56:56.510Z,97329
2017-12-12T20:59:24.823Z,97338
2017-12-12T21:01:53.152Z,97344
2017-12-12T21:04:21.520Z,97345
2017-12-12T21:06:50.596Z,97355
2017-12-12T21:09:18.879Z,97350
2017-12-12T21:11:47.154Z,97352
2017-12-12T21:14:15.430Z,97353
2017-12-12T21:16:43.634Z,97358
2017-12-12T21:19:11.853Z,97370
2017-12-12T21:21:40.144Z,97378
2017-12-12T21:24:08.374Z,97369
2017-12-12T21:26:36.597Z,97376
2017-12-12T21:29:04.878Z,97374
2017-12-12T21:31:33.052Z,97382
2017-12-12T21:34:01.284Z,97385
2017-12-12T21:36:29.484Z,97384
2017-12-12T21:38:57.795Z,97399
2017-12-12T21:41:26.774Z,97398
2017-12-12T21:43:54.977Z,97399
2017-12-12T21:46:23.989Z,97394
2017-12-12T21:48:52.171Z,97399
2017-12-12T21:51:20.351Z,97404
2017-12-12T21:53:48.524Z,97405
2017-12-12T21:56:16.702Z,97413
2017-12-12T21:58:44.883Z,97418
2017-12-12T22:01:13.054Z,97426
2017-12-12T22:03:41.212Z,97431
2017-12-12T22:06:09.407Z,97442
2017-12-12T22:08:37.576Z,97444
2017-12-12T22:11:05.757Z,97446
2017-12-12T22:13:33.927Z,97453
2017-12-12T22:16:02.097Z,97451
2017-12-12T22:18:30.273Z,97452
2017-12-12T22:20:58.442Z,97452
2017-12-12T22:23:26.650Z,97461
2017-12-12T22:25:54.814Z,97461
2017-12-12T22:28:22.995Z,97463
2017-12-12T22:30:51.164Z,97463
2017-12-12T22:33:19.329Z,97474
2017-12-12T22:35:47.493Z,97472
2017-12-12T22:38:15.673Z,97474
2017-12-12T22:40:43.879Z,97473
2017-12-12T22:43:12.039Z,97472
2017-12-12T22:45:40.208Z,97476
2017-12-12T22:48:08.405Z,97470
2017-12-12T22:50:36.583Z,97480
2017-12-12T22:53:04.757Z,97478
2017-12-12T22:55:32.927Z,97479
2017-12-12T22:58:01.109Z,97475
2017-12-12T23:00:29.302Z,97477
2017-12-12T23:02:58.231Z,97477
2017-12-12T23:05:26.477Z,97477
2017-12-12T23:07:55.434Z,97478
2017-12-12T23:10:23.592Z,97483
2017-12-12T23:12:51.774Z,97482
2017-12-12T23:15:19.938Z,97486
2017-12-12T23:17:48.101Z,97487
2017-12-12T23:20:16.269Z,97495
2017-12-12T23:22:44.450Z,97497
2017-12-12T23:25:12.617Z,97495
2017-12-12T23:27:40.779Z,97497
2017-12-12T23:30:08.948Z,97501
2017-12-12T23:32:37.146Z,97503
2017-12-12T23:35:05.304Z,97504
2017-12-12T23:37:33.484Z,97512
2017-12-12T23:40:01.643Z,97504
2017-12-12T23:42:29.806Z,97506
2017-12-12T23:44:58.724Z,97506
2017-12-12T23:47:26.880Z,97502
2017-12-12T23:49:55.062Z,97508
2017-12-12T23:52:23.223Z,97518
2017-12-12T23:54:59.002Z,97528
2017-12-12T23:57:27.162Z,97524
2017-12-12T23:59:55.331Z,97529
